sensor_id;sensor_type;location;lat;lon;timestamp;P1;durP1;ratioP1;P2;durP2;ratioP2
2458;SDS011;1241;50.920;6.936;2023-02-03T00:00:16;17.40;;;14.17;;
2458;SDS011;1241;50.920;6.936;2023-02-03T00:02:42;15.83;;;11.30;;
2458;SDS011;1241;50.920;6.936;2023-02-03T00:05:08;15.83;;;14.13;;
2458;SDS011;1241;50.920;6.936;2023-02-03T00:07:33;13.27;;;11.17;;
2458;SDS011;1241;50.920;6.936;2023-02-03T00:10:02;17.25;;;12.30;;
2458;SDS011;1241;50.920;6.936;2023-02-03T00:12:28;13.88;;;11.30;;
2458;SDS011;1241;50.920;6.936;2023-02-03T00:14:54;11.80;;;10.67;;
2458;SDS011;1241;50.920;6.936;2023-02-03T00:17:20;20.77;;;11.33;;
2458;SDS011;1241;50.920;6.936;2023-02-03T00:19:45;14.10;;;10.40;;
2458;SDS011;1241;50.920;6.936;2023-02-03T00:22:11;9.53;;;8.27;;
2458;SDS011;1241;50.920;6.936;2023-02-03T00:24:37;12.88;;;9.45;;
2458;SDS011;1241;50.920;6.936;2023-02-03T00:27:03;15.87;;;9.97;;
2458;SDS011;1241;50.920;6.936;2023-02-03T00:29:28;12.10;;;10.47;;
2458;SDS011;1241;50.920;6.936;2023-02-03T00:31:54;10.93;;;9.93;;
2458;SDS011;1241;50.920;6.936;2023-02-03T00:34:20;10.97;;;8.20;;
2458;SDS011;1241;50.920;6.936;2023-02-03T00:36:46;16.93;;;11.70;;
2458;SDS011;1241;50.920;6.936;2023-02-03T00:39:13;13.50;;;8.10;;
2458;SDS011;1241;50.920;6.936;2023-02-03T00:41:39;14.95;;;11.60;;
2458;SDS011;1241;50.920;6.936;2023-02-03T00:44:06;9.35;;;8.40;;
2458;SDS011;1241;50.920;6.936;2023-02-03T00:46:31;17.17;;;9.47;;
2458;SDS011;1241;50.920;6.936;2023-02-03T00:49:01;10.02;;;7.75;;
2458;SDS011;1241;50.920;6.936;2023-02-03T00:51:27;9.10;;;7.97;;
2458;SDS011;1241;50.920;6.936;2023-02-03T00:53:53;13.20;;;8.87;;
2458;SDS011;1241;50.920;6.936;2023-02-03T00:56:19;10.43;;;7.33;;
2458;SDS011;1241;50.920;6.936;2023-02-03T00:58:44;11.87;;;9.47;;
2458;SDS011;1241;50.920;6.936;2023-02-03T01:01:10;12.52;;;8.45;;
2458;SDS011;1241;50.920;6.936;2023-02-03T01:03:36;10.93;;;7.00;;
2458;SDS011;1241;50.920;6.936;2023-02-03T01:06:23;11.65;;;9.70;;
2458;SDS011;1241;50.920;6.936;2023-02-03T01:08:49;7.65;;;6.88;;
2458;SDS011;1241;50.920;6.936;2023-02-03T01:11:21;21.02;;;8.23;;
2458;SDS011;1241;50.920;6.936;2023-02-03T01:13:49;8.00;;;6.30;;
2458;SDS011;1241;50.920;6.936;2023-02-03T01:16:18;7.47;;;6.13;;
2458;SDS011;1241;50.920;6.936;2023-02-03T01:18:44;11.80;;;8.20;;
2458;SDS011;1241;50.920;6.936;2023-02-03T01:21:12;8.52;;;6.70;;
2458;SDS011;1241;50.920;6.936;2023-02-03T01:23:39;9.85;;;6.40;;
2458;SDS011;1241;50.920;6.936;2023-02-03T01:26:07;9.95;;;6.15;;
2458;SDS011;1241;50.920;6.936;2023-02-03T01:28:34;16.55;;;8.82;;
2458;SDS011;1241;50.920;6.936;2023-02-03T01:33:35;10.63;;;7.93;;
2458;SDS011;1241;50.920;6.936;2023-02-03T01:36:01;11.37;;;7.60;;
2458;SDS011;1241;50.920;6.936;2023-02-03T01:38:28;11.40;;;6.90;;
2458;SDS011;1241;50.920;6.936;2023-02-03T01:40:54;7.10;;;5.20;;
2458;SDS011;1241;50.920;6.936;2023-02-03T01:43:27;10.40;;;7.43;;
2458;SDS011;1241;50.920;6.936;2023-02-03T01:45:55;14.43;;;7.57;;
2458;SDS011;1241;50.920;6.936;2023-02-03T01:48:22;9.95;;;6.32;;
2458;SDS011;1241;50.920;6.936;2023-02-03T01:50:49;12.32;;;7.00;;
2458;SDS011;1241;50.920;6.936;2023-02-03T01:53:15;6.63;;;5.93;;
2458;SDS011;1241;50.920;6.936;2023-02-03T01:55:41;16.17;;;8.20;;
2458;SDS011;1241;50.920;6.936;2023-02-03T01:58:12;12.38;;;7.63;;
2458;SDS011;1241;50.920;6.936;2023-02-03T02:00:46;8.95;;;6.53;;
2458;SDS011;1241;50.920;6.936;2023-02-03T02:03:12;12.05;;;8.77;;
2458;SDS011;1241;50.920;6.936;2023-02-03T02:05:44;8.80;;;6.97;;
2458;SDS011;1241;50.920;6.936;2023-02-03T02:08:13;11.68;;;7.15;;
2458;SDS011;1241;50.920;6.936;2023-02-03T02:10:42;7.85;;;6.18;;
2458;SDS011;1241;50.920;6.936;2023-02-03T02:13:09;10.93;;;7.25;;
2458;SDS011;1241;50.920;6.936;2023-02-03T02:18:38;7.63;;;4.80;;
2458;SDS011;1241;50.920;6.936;2023-02-03T02:25:10;12.02;;;7.22;;
2458;SDS011;1241;50.920;6.936;2023-02-03T02:30:02;9.15;;;5.68;;
2458;SDS011;1241;50.920;6.936;2023-02-03T02:38:22;11.00;;;6.95;;
2458;SDS011;1241;50.920;6.936;2023-02-03T02:41:01;7.00;;;5.35;;
2458;SDS011;1241;50.920;6.936;2023-02-03T02:44:06;6.10;;;5.32;;
2458;SDS011;1241;50.920;6.936;2023-02-03T02:46:42;9.30;;;6.60;;
2458;SDS011;1241;50.920;6.936;2023-02-03T02:51:40;10.05;;;6.70;;
2458;SDS011;1241;50.920;6.936;2023-02-03T02:54:10;9.45;;;6.72;;
2458;SDS011;1241;50.920;6.936;2023-02-03T02:56:44;6.30;;;5.22;;
2458;SDS011;1241;50.920;6.936;2023-02-03T02:59:15;9.45;;;6.93;;
2458;SDS011;1241;50.920;6.936;2023-02-03T03:01:41;9.17;;;5.37;;
2458;SDS011;1241;50.920;6.936;2023-02-03T03:04:09;6.63;;;4.85;;
2458;SDS011;1241;50.920;6.936;2023-02-03T03:06:45;10.13;;;6.10;;
2458;SDS011;1241;50.920;6.936;2023-02-03T03:09:15;9.50;;;6.90;;
2458;SDS011;1241;50.920;6.936;2023-02-03T03:11:53;12.15;;;6.53;;
2458;SDS011;1241;50.920;6.936;2023-02-03T03:14:23;9.02;;;7.10;;
2458;SDS011;1241;50.920;6.936;2023-02-03T03:16:53;12.63;;;6.35;;
2458;SDS011;1241;50.920;6.936;2023-02-03T03:19:23;12.52;;;6.07;;
2458;SDS011;1241;50.920;6.936;2023-02-03T03:21:52;7.03;;;4.90;;
2458;SDS011;1241;50.920;6.936;2023-02-03T03:24:26;6.78;;;5.45;;
2458;SDS011;1241;50.920;6.936;2023-02-03T03:26:55;9.27;;;5.28;;
2458;SDS011;1241;50.920;6.936;2023-02-03T03:29:30;11.13;;;7.70;;
2458;SDS011;1241;50.920;6.936;2023-02-03T03:31:59;9.30;;;6.55;;
2458;SDS011;1241;50.920;6.936;2023-02-03T03:34:26;10.88;;;7.13;;
2458;SDS011;1241;50.920;6.936;2023-02-03T03:39:30;10.65;;;5.78;;
2458;SDS011;1241;50.920;6.936;2023-02-03T03:44:56;7.32;;;5.32;;
2458;SDS011;1241;50.920;6.936;2023-02-03T03:50:03;5.93;;;5.18;;
2458;SDS011;1241;50.920;6.936;2023-02-03T03:52:32;5.50;;;4.82;;
2458;SDS011;1241;50.920;6.936;2023-02-03T03:55:00;12.98;;;7.13;;
2458;SDS011;1241;50.920;6.936;2023-02-03T04:00:06;10.15;;;6.43;;
2458;SDS011;1241;50.920;6.936;2023-02-03T04:02:39;8.95;;;5.93;;
2458;SDS011;1241;50.920;6.936;2023-02-03T04:05:10;10.43;;;5.95;;
2458;SDS011;1241;50.920;6.936;2023-02-03T04:07:38;6.70;;;5.00;;
2458;SDS011;1241;50.920;6.936;2023-02-03T04:10:10;13.07;;;7.70;;
2458;SDS011;1241;50.920;6.936;2023-02-03T04:12:38;10.57;;;6.65;;
2458;SDS011;1241;50.920;6.936;2023-02-03T04:15:04;14.20;;;7.00;;
2458;SDS011;1241;50.920;6.936;2023-02-03T04:17:30;9.07;;;7.43;;
2458;SDS011;1241;50.920;6.936;2023-02-03T04:19:58;10.60;;;6.30;;
2458;SDS011;1241;50.920;6.936;2023-02-03T04:22:23;11.63;;;6.20;;
2458;SDS011;1241;50.920;6.936;2023-02-03T04:24:49;13.07;;;9.40;;
2458;SDS011;1241;50.920;6.936;2023-02-03T04:27:15;6.00;;;5.50;;
2458;SDS011;1241;50.920;6.936;2023-02-03T04:29:40;8.10;;;4.90;;
2458;SDS011;1241;50.920;6.936;2023-02-03T04:32:06;10.27;;;7.67;;
2458;SDS011;1241;50.920;6.936;2023-02-03T04:34:32;7.97;;;5.40;;
2458;SDS011;1241;50.920;6.936;2023-02-03T04:36:57;6.37;;;5.77;;
2458;SDS011;1241;50.920;6.936;2023-02-03T04:39:23;10.13;;;7.00;;
2458;SDS011;1241;50.920;6.936;2023-02-03T04:41:49;7.70;;;6.20;;
2458;SDS011;1241;50.920;6.936;2023-02-03T04:44:15;10.23;;;5.90;;
2458;SDS011;1241;50.920;6.936;2023-02-03T04:46:40;9.33;;;5.03;;
2458;SDS011;1241;50.920;6.936;2023-02-03T04:49:06;6.40;;;5.80;;
2458;SDS011;1241;50.920;6.936;2023-02-03T04:51:35;7.65;;;5.28;;
2458;SDS011;1241;50.920;6.936;2023-02-03T04:54:01;7.40;;;6.23;;
2458;SDS011;1241;50.920;6.936;2023-02-03T04:56:27;8.07;;;6.30;;
2458;SDS011;1241;50.920;6.936;2023-02-03T04:58:52;7.00;;;6.10;;
2458;SDS011;1241;50.920;6.936;2023-02-03T05:01:18;4.20;;;3.80;;
2458;SDS011;1241;50.920;6.936;2023-02-03T05:03:43;7.23;;;4.97;;
2458;SDS011;1241;50.920;6.936;2023-02-03T05:06:09;6.60;;;5.30;;
2458;SDS011;1241;50.920;6.936;2023-02-03T05:08:35;6.83;;;4.83;;
2458;SDS011;1241;50.920;6.936;2023-02-03T05:11:00;7.70;;;5.50;;
2458;SDS011;1241;50.920;6.936;2023-02-03T05:13:26;6.43;;;5.63;;
2458;SDS011;1241;50.920;6.936;2023-02-03T05:15:52;5.57;;;5.03;;
2458;SDS011;1241;50.920;6.936;2023-02-03T05:18:18;8.83;;;7.40;;
2458;SDS011;1241;50.920;6.936;2023-02-03T05:20:43;7.50;;;5.00;;
2458;SDS011;1241;50.920;6.936;2023-02-03T05:23:09;11.33;;;6.13;;
2458;SDS011;1241;50.920;6.936;2023-02-03T05:25:35;6.60;;;5.23;;
2458;SDS011;1241;50.920;6.936;2023-02-03T05:28:00;5.37;;;4.53;;
2458;SDS011;1241;50.920;6.936;2023-02-03T05:30:26;7.43;;;5.40;;
2458;SDS011;1241;50.920;6.936;2023-02-03T05:32:52;7.17;;;5.60;;
2458;SDS011;1241;50.920;6.936;2023-02-03T05:35:17;14.13;;;6.80;;
2458;SDS011;1241;50.920;6.936;2023-02-03T05:37:43;6.57;;;4.77;;
2458;SDS011;1241;50.920;6.936;2023-02-03T05:40:10;7.00;;;6.00;;
2458;SDS011;1241;50.920;6.936;2023-02-03T05:42:55;5.72;;;4.72;;
2458;SDS011;1241;50.920;6.936;2023-02-03T05:45:21;12.07;;;5.70;;
2458;SDS011;1241;50.920;6.936;2023-02-03T05:47:46;9.97;;;6.97;;
2458;SDS011;1241;50.920;6.936;2023-02-03T05:50:12;6.27;;;4.27;;
2458;SDS011;1241;50.920;6.936;2023-02-03T05:52:39;5.82;;;4.35;;
2458;SDS011;1241;50.920;6.936;2023-02-03T05:55:05;6.73;;;4.53;;
2458;SDS011;1241;50.920;6.936;2023-02-03T05:57:31;7.40;;;4.30;;
2458;SDS011;1241;50.920;6.936;2023-02-03T05:59:56;7.00;;;4.40;;
2458;SDS011;1241;50.920;6.936;2023-02-03T06:02:22;7.73;;;3.30;;
2458;SDS011;1241;50.920;6.936;2023-02-03T06:04:48;5.33;;;4.70;;
2458;SDS011;1241;50.920;6.936;2023-02-03T06:07:13;7.23;;;5.10;;
2458;SDS011;1241;50.920;6.936;2023-02-03T06:09:39;6.17;;;3.83;;
2458;SDS011;1241;50.920;6.936;2023-02-03T06:12:05;5.67;;;4.13;;
2458;SDS011;1241;50.920;6.936;2023-02-03T06:14:31;6.60;;;3.77;;
2458;SDS011;1241;50.920;6.936;2023-02-03T06:16:56;3.67;;;3.33;;
2458;SDS011;1241;50.920;6.936;2023-02-03T06:19:22;4.77;;;4.30;;
2458;SDS011;1241;50.920;6.936;2023-02-03T06:21:48;8.80;;;5.67;;
2458;SDS011;1241;50.920;6.936;2023-02-03T06:24:13;8.20;;;7.30;;
2458;SDS011;1241;50.920;6.936;2023-02-03T06:26:39;8.53;;;5.43;;
2458;SDS011;1241;50.920;6.936;2023-02-03T06:29:05;4.90;;;3.60;;
2458;SDS011;1241;50.920;6.936;2023-02-03T06:31:30;10.27;;;5.03;;
2458;SDS011;1241;50.920;6.936;2023-02-03T06:33:56;7.43;;;4.73;;
2458;SDS011;1241;50.920;6.936;2023-02-03T06:36:23;9.40;;;4.65;;
2458;SDS011;1241;50.920;6.936;2023-02-03T06:38:49;9.77;;;4.27;;
2458;SDS011;1241;50.920;6.936;2023-02-03T06:41:15;5.50;;;4.97;;
2458;SDS011;1241;50.920;6.936;2023-02-03T06:43:40;6.47;;;4.47;;
2458;SDS011;1241;50.920;6.936;2023-02-03T06:46:06;6.20;;;4.33;;
2458;SDS011;1241;50.920;6.936;2023-02-03T06:48:32;11.90;;;4.70;;
2458;SDS011;1241;50.920;6.936;2023-02-03T06:50:57;10.37;;;6.07;;
2458;SDS011;1241;50.920;6.936;2023-02-03T06:53:23;6.00;;;3.73;;
2458;SDS011;1241;50.920;6.936;2023-02-03T06:55:49;7.03;;;4.67;;
2458;SDS011;1241;50.920;6.936;2023-02-03T06:58:14;8.90;;;4.57;;
2458;SDS011;1241;50.920;6.936;2023-02-03T07:00:40;11.00;;;5.80;;
2458;SDS011;1241;50.920;6.936;2023-02-03T07:03:06;6.10;;;3.20;;
2458;SDS011;1241;50.920;6.936;2023-02-03T07:05:31;5.97;;;3.60;;
2458;SDS011;1241;50.920;6.936;2023-02-03T07:07:57;11.77;;;10.30;;
2458;SDS011;1241;50.920;6.936;2023-02-03T07:10:23;16.57;;;7.30;;
2458;SDS011;1241;50.920;6.936;2023-02-03T07:12:49;6.03;;;4.10;;
2458;SDS011;1241;50.920;6.936;2023-02-03T07:15:16;6.53;;;4.30;;
2458;SDS011;1241;50.920;6.936;2023-02-03T07:17:42;11.55;;;6.20;;
2458;SDS011;1241;50.920;6.936;2023-02-03T07:20:07;12.83;;;5.87;;
2458;SDS011;1241;50.920;6.936;2023-02-03T07:22:33;5.72;;;4.78;;
2458;SDS011;1241;50.920;6.936;2023-02-03T07:25:00;11.35;;;6.10;;
2458;SDS011;1241;50.920;6.936;2023-02-03T07:27:26;10.50;;;7.20;;
2458;SDS011;1241;50.920;6.936;2023-02-03T07:29:53;9.23;;;5.68;;
2458;SDS011;1241;50.920;6.936;2023-02-03T07:32:19;12.50;;;6.97;;
2458;SDS011;1241;50.920;6.936;2023-02-03T07:34:45;8.17;;;4.53;;
2458;SDS011;1241;50.920;6.936;2023-02-03T07:37:10;5.67;;;4.80;;
2458;SDS011;1241;50.920;6.936;2023-02-03T07:39:36;8.80;;;4.87;;
2458;SDS011;1241;50.920;6.936;2023-02-03T07:42:01;12.00;;;5.70;;
2458;SDS011;1241;50.920;6.936;2023-02-03T07:44:28;12.95;;;5.20;;
2458;SDS011;1241;50.920;6.936;2023-02-03T07:46:54;5.63;;;2.90;;
2458;SDS011;1241;50.920;6.936;2023-02-03T07:49:19;11.60;;;4.70;;
2458;SDS011;1241;50.920;6.936;2023-02-03T07:51:45;3.57;;;3.03;;
2458;SDS011;1241;50.920;6.936;2023-02-03T07:54:11;10.53;;;6.97;;
2458;SDS011;1241;50.920;6.936;2023-02-03T07:56:36;10.00;;;4.00;;
2458;SDS011;1241;50.920;6.936;2023-02-03T07:59:02;7.33;;;4.57;;
2458;SDS011;1241;50.920;6.936;2023-02-03T08:01:28;11.23;;;4.97;;
2458;SDS011;1241;50.920;6.936;2023-02-03T08:03:55;13.07;;;5.63;;
2458;SDS011;1241;50.920;6.936;2023-02-03T08:06:21;5.43;;;2.87;;
2458;SDS011;1241;50.920;6.936;2023-02-03T08:08:47;8.30;;;5.00;;
2458;SDS011;1241;50.920;6.936;2023-02-03T08:11:12;9.10;;;3.10;;
2458;SDS011;1241;50.920;6.936;2023-02-03T08:13:38;4.93;;;3.73;;
2458;SDS011;1241;50.920;6.936;2023-02-03T08:16:04;12.47;;;4.87;;
2458;SDS011;1241;50.920;6.936;2023-02-03T08:18:30;7.57;;;6.22;;
2458;SDS011;1241;50.920;6.936;2023-02-03T08:20:55;7.30;;;3.23;;
2458;SDS011;1241;50.920;6.936;2023-02-03T08:23:21;7.03;;;4.33;;
2458;SDS011;1241;50.920;6.936;2023-02-03T08:25:50;9.13;;;5.63;;
2458;SDS011;1241;50.920;6.936;2023-02-03T08:28:16;12.55;;;3.47;;
2458;SDS011;1241;50.920;6.936;2023-02-03T08:30:42;5.17;;;3.40;;
2458;SDS011;1241;50.920;6.936;2023-02-03T08:33:08;7.50;;;5.63;;
2458;SDS011;1241;50.920;6.936;2023-02-03T08:35:34;4.23;;;3.80;;
2458;SDS011;1241;50.920;6.936;2023-02-03T08:37:59;5.43;;;4.17;;
2458;SDS011;1241;50.920;6.936;2023-02-03T08:40:25;6.70;;;3.10;;
2458;SDS011;1241;50.920;6.936;2023-02-03T08:42:51;3.70;;;3.37;;
2458;SDS011;1241;50.920;6.936;2023-02-03T08:45:17;4.20;;;3.00;;
2458;SDS011;1241;50.920;6.936;2023-02-03T08:47:43;5.63;;;4.90;;
2458;SDS011;1241;50.920;6.936;2023-02-03T08:50:08;6.20;;;4.07;;
2458;SDS011;1241;50.920;6.936;2023-02-03T08:52:34;6.03;;;3.88;;
2458;SDS011;1241;50.920;6.936;2023-02-03T08:55:00;4.27;;;3.57;;
2458;SDS011;1241;50.920;6.936;2023-02-03T08:57:26;9.93;;;5.37;;
2458;SDS011;1241;50.920;6.936;2023-02-03T08:59:55;10.30;;;4.32;;
2458;SDS011;1241;50.920;6.936;2023-02-03T09:02:21;7.77;;;4.63;;
2458;SDS011;1241;50.920;6.936;2023-02-03T09:04:46;5.20;;;4.40;;
2458;SDS011;1241;50.920;6.936;2023-02-03T09:07:13;5.53;;;3.78;;
2458;SDS011;1241;50.920;6.936;2023-02-03T09:09:40;8.02;;;5.47;;
2458;SDS011;1241;50.920;6.936;2023-02-03T09:12:06;9.30;;;4.43;;
2458;SDS011;1241;50.920;6.936;2023-02-03T09:14:33;11.35;;;5.82;;
2458;SDS011;1241;50.920;6.936;2023-02-03T09:17:00;8.82;;;5.50;;
2458;SDS011;1241;50.920;6.936;2023-02-03T09:19:27;4.15;;;3.30;;
2458;SDS011;1241;50.920;6.936;2023-02-03T09:21:53;4.82;;;4.32;;
2458;SDS011;1241;50.920;6.936;2023-02-03T09:24:21;7.47;;;4.13;;
2458;SDS011;1241;50.920;6.936;2023-02-03T09:26:47;6.85;;;3.90;;
2458;SDS011;1241;50.920;6.936;2023-02-03T09:29:13;6.00;;;3.13;;
2458;SDS011;1241;50.920;6.936;2023-02-03T09:31:39;3.77;;;3.47;;
2458;SDS011;1241;50.920;6.936;2023-02-03T09:34:04;9.83;;;4.63;;
2458;SDS011;1241;50.920;6.936;2023-02-03T09:36:30;5.83;;;3.37;;
2458;SDS011;1241;50.920;6.936;2023-02-03T09:38:56;8.63;;;4.80;;
2458;SDS011;1241;50.920;6.936;2023-02-03T09:43:59;5.05;;;4.55;;
2458;SDS011;1241;50.920;6.936;2023-02-03T09:46:37;5.30;;;3.22;;
2458;SDS011;1241;50.920;6.936;2023-02-03T09:49:28;3.95;;;3.50;;
2458;SDS011;1241;50.920;6.936;2023-02-03T09:57:18;6.80;;;4.13;;
2458;SDS011;1241;50.920;6.936;2023-02-03T09:59:46;5.97;;;3.70;;
2458;SDS011;1241;50.920;6.936;2023-02-03T10:02:18;6.53;;;4.00;;
2458;SDS011;1241;50.920;6.936;2023-02-03T10:05:10;4.53;;;3.90;;
2458;SDS011;1241;50.920;6.936;2023-02-03T10:13:01;8.63;;;5.93;;
2458;SDS011;1241;50.920;6.936;2023-02-03T10:18:27;10.50;;;4.50;;
2458;SDS011;1241;50.920;6.936;2023-02-03T10:21:01;10.23;;;3.90;;
2458;SDS011;1241;50.920;6.936;2023-02-03T10:23:34;6.22;;;5.32;;
2458;SDS011;1241;50.920;6.936;2023-02-03T10:26:04;6.45;;;3.78;;
2458;SDS011;1241;50.920;6.936;2023-02-03T10:31:45;6.13;;;4.97;;
2458;SDS011;1241;50.920;6.936;2023-02-03T10:34:13;9.13;;;5.03;;
2458;SDS011;1241;50.920;6.936;2023-02-03T10:36:48;8.35;;;5.75;;
2458;SDS011;1241;50.920;6.936;2023-02-03T10:39:20;6.75;;;6.15;;
2458;SDS011;1241;50.920;6.936;2023-02-03T10:41:49;5.55;;;5.05;;
2458;SDS011;1241;50.920;6.936;2023-02-03T10:44:14;6.97;;;5.63;;
2458;SDS011;1241;50.920;6.936;2023-02-03T10:46:40;8.67;;;6.07;;
2458;SDS011;1241;50.920;6.936;2023-02-03T10:49:09;7.97;;;5.07;;
2458;SDS011;1241;50.920;6.936;2023-02-03T10:51:42;5.57;;;4.95;;
2458;SDS011;1241;50.920;6.936;2023-02-03T10:54:25;5.93;;;5.15;;
2458;SDS011;1241;50.920;6.936;2023-02-03T10:57:20;7.57;;;5.60;;
2458;SDS011;1241;50.920;6.936;2023-02-03T10:59:46;6.03;;;5.35;;
2458;SDS011;1241;50.920;6.936;2023-02-03T11:02:22;9.65;;;5.75;;
2458;SDS011;1241;50.920;6.936;2023-02-03T11:05:07;7.18;;;5.65;;
2458;SDS011;1241;50.920;6.936;2023-02-03T11:07:42;5.88;;;4.75;;
2458;SDS011;1241;50.920;6.936;2023-02-03T11:13:10;7.75;;;6.18;;
2458;SDS011;1241;50.920;6.936;2023-02-03T11:15:53;6.60;;;6.00;;
2458;SDS011;1241;50.920;6.936;2023-02-03T11:23:44;13.40;;;6.60;;
2458;SDS011;1241;50.920;6.936;2023-02-03T11:26:18;8.30;;;7.07;;
2458;SDS011;1241;50.920;6.936;2023-02-03T11:28:46;8.48;;;5.20;;
2458;SDS011;1241;50.920;6.936;2023-02-03T11:31:16;9.30;;;6.90;;
2458;SDS011;1241;50.920;6.936;2023-02-03T11:33:48;9.90;;;6.65;;
2458;SDS011;1241;50.920;6.936;2023-02-03T11:36:17;10.30;;;5.80;;
2458;SDS011;1241;50.920;6.936;2023-02-03T11:38:44;8.68;;;5.57;;
2458;SDS011;1241;50.920;6.936;2023-02-03T11:41:14;8.20;;;7.07;;
2458;SDS011;1241;50.920;6.936;2023-02-03T11:43:41;7.20;;;6.53;;
2458;SDS011;1241;50.920;6.936;2023-02-03T11:46:07;9.40;;;6.63;;
2458;SDS011;1241;50.920;6.936;2023-02-03T11:56:47;8.10;;;6.22;;
2458;SDS011;1241;50.920;6.936;2023-02-03T12:17:29;8.65;;;7.32;;
2458;SDS011;1241;50.920;6.936;2023-02-03T12:20:13;13.35;;;8.75;;
2458;SDS011;1241;50.920;6.936;2023-02-03T12:25:51;9.90;;;8.98;;
2458;SDS011;1241;50.920;6.936;2023-02-03T12:28:57;10.35;;;8.18;;
2458;SDS011;1241;50.920;6.936;2023-02-03T12:31:59;11.90;;;9.30;;
2458;SDS011;1241;50.920;6.936;2023-02-03T12:37:43;10.77;;;8.52;;
2458;SDS011;1241;50.920;6.936;2023-02-03T12:40:35;12.35;;;10.40;;
2458;SDS011;1241;50.920;6.936;2023-02-03T12:45:40;13.98;;;9.77;;
2458;SDS011;1241;50.920;6.936;2023-02-03T12:48:11;10.43;;;9.32;;
2458;SDS011;1241;50.920;6.936;2023-02-03T12:50:51;12.20;;;9.38;;
2458;SDS011;1241;50.920;6.936;2023-02-03T12:53:29;14.27;;;9.60;;
2458;SDS011;1241;50.920;6.936;2023-02-03T12:56:08;15.55;;;9.43;;
2458;SDS011;1241;50.920;6.936;2023-02-03T13:01:21;12.23;;;10.98;;
2458;SDS011;1241;50.920;6.936;2023-02-03T13:13:01;17.70;;;10.60;;
2458;SDS011;1241;50.920;6.936;2023-02-03T13:15:38;11.80;;;10.60;;
2458;SDS011;1241;50.920;6.936;2023-02-03T13:18:30;15.98;;;11.10;;
2458;SDS011;1241;50.920;6.936;2023-02-03T13:20:59;11.85;;;10.40;;
2458;SDS011;1241;50.920;6.936;2023-02-03T13:23:25;16.13;;;11.30;;
2458;SDS011;1241;50.920;6.936;2023-02-03T13:26:07;12.77;;;11.57;;
2458;SDS011;1241;50.920;6.936;2023-02-03T13:29:28;12.70;;;11.50;;
2458;SDS011;1241;50.920;6.936;2023-02-03T13:32:21;21.25;;;12.75;;
2458;SDS011;1241;50.920;6.936;2023-02-03T13:37:44;12.65;;;11.35;;
2458;SDS011;1241;50.920;6.936;2023-02-03T13:40:44;13.63;;;12.27;;
2458;SDS011;1241;50.920;6.936;2023-02-03T13:43:30;20.60;;;13.70;;
2458;SDS011;1241;50.920;6.936;2023-02-03T13:46:00;12.65;;;11.30;;
2458;SDS011;1241;50.920;6.936;2023-02-03T13:48:27;14.85;;;12.00;;
2458;SDS011;1241;50.920;6.936;2023-02-03T13:53:32;15.30;;;12.40;;
2458;SDS011;1241;50.920;6.936;2023-02-03T13:56:01;13.60;;;12.05;;
2458;SDS011;1241;50.920;6.936;2023-02-03T13:58:29;15.35;;;13.20;;
2458;SDS011;1241;50.920;6.936;2023-02-03T14:00:59;19.20;;;12.98;;
2458;SDS011;1241;50.920;6.936;2023-02-03T14:03:50;16.25;;;13.75;;
2458;SDS011;1241;50.920;6.936;2023-02-03T14:09:20;22.90;;;12.50;;
2458;SDS011;1241;50.920;6.936;2023-02-03T14:12:11;17.60;;;13.70;;
2458;SDS011;1241;50.920;6.936;2023-02-03T14:25:32;16.67;;;13.73;;
2458;SDS011;1241;50.920;6.936;2023-02-03T14:28:15;20.73;;;15.10;;
2458;SDS011;1241;50.920;6.936;2023-02-03T14:33:48;16.92;;;11.88;;
2458;SDS011;1241;50.920;6.936;2023-02-03T14:36:33;16.13;;;12.40;;
2458;SDS011;1241;50.920;6.936;2023-02-03T14:39:03;19.05;;;12.38;;
2458;SDS011;1241;50.920;6.936;2023-02-03T14:44:42;14.88;;;13.05;;
2458;SDS011;1241;50.920;6.936;2023-02-03T14:55:41;13.27;;;10.43;;
2458;SDS011;1241;50.920;6.936;2023-02-03T15:01:02;15.80;;;10.55;;
2458;SDS011;1241;50.920;6.936;2023-02-03T15:03:29;10.93;;;9.80;;
2458;SDS011;1241;50.920;6.936;2023-02-03T15:06:02;11.57;;;10.48;;
2458;SDS011;1241;50.920;6.936;2023-02-03T15:11:25;11.05;;;9.70;;
2458;SDS011;1241;50.920;6.936;2023-02-03T15:13:54;11.30;;;9.68;;
2458;SDS011;1241;50.920;6.936;2023-02-03T15:16:21;13.82;;;9.43;;
2458;SDS011;1241;50.920;6.936;2023-02-03T15:18:55;9.82;;;8.18;;
2458;SDS011;1241;50.920;6.936;2023-02-03T15:21:32;9.60;;;8.35;;
2458;SDS011;1241;50.920;6.936;2023-02-03T15:24:10;15.57;;;8.98;;
2458;SDS011;1241;50.920;6.936;2023-02-03T15:26:50;13.20;;;7.40;;
2458;SDS011;1241;50.920;6.936;2023-02-03T15:31:47;11.32;;;8.02;;
2458;SDS011;1241;50.920;6.936;2023-02-03T15:34:28;12.45;;;8.95;;
2458;SDS011;1241;50.920;6.936;2023-02-03T15:37:01;8.65;;;6.30;;
2458;SDS011;1241;50.920;6.936;2023-02-03T15:39:42;9.02;;;7.45;;
2458;SDS011;1241;50.920;6.936;2023-02-03T15:42:38;12.35;;;6.53;;
2458;SDS011;1241;50.920;6.936;2023-02-03T15:47:39;12.80;;;9.03;;
2458;SDS011;1241;50.920;6.936;2023-02-03T15:50:33;11.82;;;6.55;;
2458;SDS011;1241;50.920;6.936;2023-02-03T15:53:20;12.70;;;8.20;;
2458;SDS011;1241;50.920;6.936;2023-02-03T15:55:53;10.07;;;6.07;;
2458;SDS011;1241;50.920;6.936;2023-02-03T15:58:24;7.95;;;5.75;;
2458;SDS011;1241;50.920;6.936;2023-02-03T16:00:59;8.70;;;6.90;;
2458;SDS011;1241;50.920;6.936;2023-02-03T16:03:32;8.00;;;7.20;;
2458;SDS011;1241;50.920;6.936;2023-02-03T16:06:06;12.43;;;8.18;;
2458;SDS011;1241;50.920;6.936;2023-02-03T16:08:46;12.82;;;7.72;;
2458;SDS011;1241;50.920;6.936;2023-02-03T16:13:48;10.38;;;8.85;;
2458;SDS011;1241;50.920;6.936;2023-02-03T16:16:15;13.20;;;7.93;;
2458;SDS011;1241;50.920;6.936;2023-02-03T16:18:52;10.93;;;8.20;;
2458;SDS011;1241;50.920;6.936;2023-02-03T16:21:27;12.75;;;9.10;;
2458;SDS011;1241;50.920;6.936;2023-02-03T16:23:57;13.48;;;11.18;;
2458;SDS011;1241;50.920;6.936;2023-02-03T16:26:27;9.63;;;7.80;;
2458;SDS011;1241;50.920;6.936;2023-02-03T16:31:50;10.52;;;8.15;;
2458;SDS011;1241;50.920;6.936;2023-02-03T16:34:37;9.95;;;8.52;;
2458;SDS011;1241;50.920;6.936;2023-02-03T16:37:22;14.75;;;8.88;;
2458;SDS011;1241;50.920;6.936;2023-02-03T16:40:09;13.85;;;7.43;;
2458;SDS011;1241;50.920;6.936;2023-02-03T16:42:54;16.63;;;10.57;;
2458;SDS011;1241;50.920;6.936;2023-02-03T16:45:38;16.05;;;10.63;;
2458;SDS011;1241;50.920;6.936;2023-02-03T16:48:23;16.95;;;11.00;;
2458;SDS011;1241;50.920;6.936;2023-02-03T16:51:11;12.30;;;8.63;;
2458;SDS011;1241;50.920;6.936;2023-02-03T16:53:40;13.55;;;7.78;;
2458;SDS011;1241;50.920;6.936;2023-02-03T16:56:08;14.93;;;8.30;;
2458;SDS011;1241;50.920;6.936;2023-02-03T16:58:34;16.05;;;10.32;;
2458;SDS011;1241;50.920;6.936;2023-02-03T17:01:01;16.63;;;8.97;;
2458;SDS011;1241;50.920;6.936;2023-02-03T17:03:29;11.57;;;6.78;;
2458;SDS011;1241;50.920;6.936;2023-02-03T17:06:00;15.50;;;8.50;;
2458;SDS011;1241;50.920;6.936;2023-02-03T17:08:28;10.90;;;6.07;;
2458;SDS011;1241;50.920;6.936;2023-02-03T17:10:54;11.57;;;7.27;;
2458;SDS011;1241;50.920;6.936;2023-02-03T17:13:26;11.73;;;5.80;;
2458;SDS011;1241;50.920;6.936;2023-02-03T17:15:51;9.00;;;6.33;;
2458;SDS011;1241;50.920;6.936;2023-02-03T17:18:17;8.40;;;5.20;;
2458;SDS011;1241;50.920;6.936;2023-02-03T17:20:43;14.33;;;8.20;;
2458;SDS011;1241;50.920;6.936;2023-02-03T17:23:10;12.40;;;6.00;;
2458;SDS011;1241;50.920;6.936;2023-02-03T17:25:37;9.10;;;4.72;;
2458;SDS011;1241;50.920;6.936;2023-02-03T17:28:07;22.48;;;9.77;;
2458;SDS011;1241;50.920;6.936;2023-02-03T17:30:33;20.25;;;8.73;;
2458;SDS011;1241;50.920;6.936;2023-02-03T17:33:03;18.15;;;11.38;;
2458;SDS011;1241;50.920;6.936;2023-02-03T17:35:40;12.80;;;6.80;;
2458;SDS011;1241;50.920;6.936;2023-02-03T17:38:06;15.20;;;7.03;;
2458;SDS011;1241;50.920;6.936;2023-02-03T17:40:33;14.77;;;6.05;;
2458;SDS011;1241;50.920;6.936;2023-02-03T17:42:59;19.67;;;8.67;;
2458;SDS011;1241;50.920;6.936;2023-02-03T17:45:25;16.97;;;8.00;;
2458;SDS011;1241;50.920;6.936;2023-02-03T17:47:50;15.20;;;7.93;;
2458;SDS011;1241;50.920;6.936;2023-02-03T17:50:16;16.83;;;8.20;;
2458;SDS011;1241;50.920;6.936;2023-02-03T17:52:42;15.07;;;8.03;;
2458;SDS011;1241;50.920;6.936;2023-02-03T17:55:08;14.23;;;6.22;;
2458;SDS011;1241;50.920;6.936;2023-02-03T17:57:38;14.80;;;5.95;;
2458;SDS011;1241;50.920;6.936;2023-02-03T18:00:03;11.52;;;5.07;;